North Franklin, Nebraska
Current Conditions -  °F | °C
As of 9:53 AM on Wednesday 26 Nov 2014 (Local Time) from KHSI Reporting Station
Overcast Overcast  
Wind Chill: 13°   Ceiling: 1800
Heat Index: 29°   Visibility: 10mi
Dew Point: 20°   Wind: 31mph
Humidity: 69%   Direction: 340°NNW
Pressure: 30.15"   Gusts: 38mph
Location:  40.3066°N, 98.7833°W
Report Text: KHSI 261553Z AUTO 34027G33KT 10SM OVC018 M02/M07 A3015 RMK AO2 PK WND 34035/1454 SLP226 T10171067
Loading
Personal Weather Stations






























Interactive Weather Map New forecast layout! Learn more

10-Day Weather Forecast

Advertisements
Track Severe Weather on mobile